createdAt,value
2022-11-25T00:01:17.537Z,6.95
2022-11-25T00:03:46.415Z,6.97
2022-11-25T00:06:26.236Z,7.05
2022-11-25T00:08:58.975Z,7.05
2022-11-25T00:11:26.697Z,7.09
2022-11-25T00:13:56.006Z,7.09
2022-11-25T00:16:24.237Z,7.08
2022-11-25T00:18:53.721Z,7.06
2022-11-25T00:21:24.100Z,7.11
2022-11-25T00:24:00.602Z,7.09
2022-11-25T00:26:29.180Z,7.05
2022-11-25T00:28:59.498Z,7.06
2022-11-25T00:31:29.377Z,7.09
2022-11-25T00:33:56.317Z,7.07
2022-11-25T00:36:32.204Z,7.06
2022-11-25T00:39:03.841Z,7.07
2022-11-25T00:41:50.025Z,7.13
2022-11-25T00:44:40.488Z,7.13
2022-11-25T00:47:09.985Z,7.19
2022-11-25T00:49:38.651Z,7.10
2022-11-25T00:52:06.644Z,7.11
2022-11-25T00:54:33.999Z,7.17
2022-11-25T00:57:01.219Z,7.18
2022-11-25T00:59:28.676Z,7.17
2022-11-25T01:01:56.144Z,7.14
2022-11-25T01:04:23.414Z,7.25
2022-11-25T01:06:50.279Z,7.25
2022-11-25T01:09:17.314Z,7.26
2022-11-25T01:11:44.449Z,7.28
2022-11-25T01:14:11.644Z,7.22
2022-11-25T01:16:38.665Z,7.24
2022-11-25T01:19:05.646Z,7.26
2022-11-25T01:21:34.316Z,7.37
2022-11-25T01:24:02.688Z,7.32
2022-11-25T01:26:30.963Z,7.27
2022-11-25T01:29:00.294Z,7.35
2022-11-25T01:31:30.218Z,7.39
2022-11-25T01:34:00.583Z,7.35
2022-11-25T01:36:28.742Z,7.36
2022-11-25T01:38:59.202Z,7.39
2022-11-25T01:41:28.556Z,7.33
2022-11-25T01:44:10.113Z,7.42
2022-11-25T01:46:56.771Z,7.48
2022-11-25T01:49:32.993Z,7.51
2022-11-25T01:51:59.638Z,7.51
2022-11-25T01:54:31.480Z,7.53
2022-11-25T01:57:08.144Z,7.51
2022-11-25T01:59:46.356Z,7.48
2022-11-25T02:02:15.777Z,7.51
2022-11-25T02:04:44.826Z,7.51
2022-11-25T02:07:22.381Z,7.52
2022-11-25T02:09:50.894Z,7.48
2022-11-25T02:12:20.506Z,7.49
2022-11-25T02:14:49.842Z,7.42
2022-11-25T02:17:17.288Z,7.38
2022-11-25T02:20:01.783Z,7.41
2022-11-25T02:22:53.711Z,7.42
2022-11-25T02:25:26.889Z,7.43
2022-11-25T02:28:20.069Z,7.39
2022-11-25T02:30:47.798Z,7.35
2022-11-25T02:33:15.691Z,7.39
2022-11-25T02:35:58.406Z,7.46
2022-11-25T02:38:37.486Z,7.48
2022-11-25T02:41:27.277Z,7.48
2022-11-25T02:43:54.081Z,7.43
2022-11-25T02:46:24.406Z,7.43
2022-11-25T02:49:08.504Z,7.46
2022-11-25T02:51:37.706Z,7.51
2022-11-25T02:54:04.596Z,7.50
2022-11-25T02:56:34.719Z,7.53
2022-11-25T02:59:02.857Z,7.54
2022-11-25T03:01:31.354Z,7.49
2022-11-25T03:03:59.493Z,7.52
2022-11-25T03:06:27.478Z,7.55
2022-11-25T03:08:54.176Z,7.52
2022-11-25T03:11:21.198Z,7.50
2022-11-25T03:13:48.077Z,7.53
2022-11-25T03:16:15.081Z,7.52
2022-11-25T03:18:41.831Z,7.49
2022-11-25T03:21:08.831Z,7.48
2022-11-25T03:23:35.855Z,7.46
2022-11-25T03:26:05.995Z,7.50
2022-11-25T03:28:32.914Z,7.46
2022-11-25T03:30:59.628Z,7.46
2022-11-25T03:33:26.348Z,7.47
2022-11-25T03:35:53.006Z,7.50
2022-11-25T03:38:19.879Z,7.46
2022-11-25T03:40:47.794Z,7.49
2022-11-25T03:43:14.686Z,7.47
2022-11-25T03:45:41.435Z,7.45
2022-11-25T03:48:08.376Z,7.42
2022-11-25T03:50:35.109Z,7.43
2022-11-25T03:53:01.794Z,7.46
2022-11-25T03:55:28.649Z,7.46
2022-11-25T03:57:55.380Z,7.46
2022-11-25T04:00:22.351Z,7.46
2022-11-25T04:02:49.304Z,7.47
2022-11-25T04:05:16.059Z,7.47
2022-11-25T04:07:42.987Z,7.48
2022-11-25T04:10:10.087Z,7.48
2022-11-25T04:12:48.725Z,7.47
2022-11-25T04:15:17.175Z,7.48
2022-11-25T04:17:44.164Z,7.48
2022-11-25T04:20:13.433Z,7.45
2022-11-25T04:22:40.872Z,7.49
2022-11-25T04:25:09.379Z,7.52
2022-11-25T04:27:36.352Z,7.48
2022-11-25T04:30:03.561Z,7.49
2022-11-25T04:32:30.242Z,7.44
2022-11-25T04:34:57.041Z,7.42
2022-11-25T04:37:23.947Z,7.49
2022-11-25T04:39:50.830Z,7.50
2022-11-25T04:42:34.222Z,7.52
2022-11-25T04:47:51.008Z,7.52
2022-11-25T04:50:21.608Z,7.54
2022-11-25T04:52:48.551Z,7.55
2022-11-25T04:55:15.438Z,7.50
2022-11-25T04:57:42.268Z,7.53
2022-11-25T05:00:10.656Z,7.49
2022-11-25T05:02:37.576Z,7.43
2022-11-25T05:05:05.479Z,7.43
2022-11-25T05:07:32.217Z,7.42
2022-11-25T05:09:59.258Z,7.30
2022-11-25T05:12:29.198Z,7.30
2022-11-25T05:14:56.554Z,7.33
2022-11-25T05:17:26.862Z,7.31
2022-11-25T05:19:53.586Z,7.28
2022-11-25T05:22:23.377Z,7.26
2022-11-25T05:24:50.142Z,7.31
2022-11-25T05:27:18.360Z,7.38
2022-11-25T05:29:45.611Z,7.37
2022-11-25T05:32:12.866Z,7.39
2022-11-25T05:34:41.086Z,7.46
2022-11-25T05:37:09.866Z,7.41
2022-11-25T05:39:36.811Z,7.44
2022-11-25T05:42:03.913Z,7.45
2022-11-25T05:44:30.614Z,7.43
2022-11-25T05:46:57.502Z,7.45
2022-11-25T05:49:24.220Z,7.45
2022-11-25T05:51:50.899Z,7.47
2022-11-25T05:54:17.597Z,7.54
2022-11-25T05:56:44.341Z,7.58
2022-11-25T05:59:11.199Z,7.55
2022-11-25T06:01:37.875Z,7.60
2022-11-25T06:04:05.310Z,7.57
2022-11-25T06:06:32.715Z,7.55
2022-11-25T06:09:00.196Z,7.57
2022-11-25T06:11:27.196Z,7.53
2022-11-25T06:13:57.896Z,7.51
2022-11-25T06:16:25.257Z,7.54
2022-11-25T06:18:52.308Z,7.51
2022-11-25T06:21:19.833Z,7.50
2022-11-25T06:23:47.275Z,7.40
2022-11-25T06:26:20.636Z,7.19
2022-11-25T06:28:48.833Z,7.01
2022-11-25T06:31:18.826Z,6.94
2022-11-25T06:33:51.199Z,6.82
2022-11-25T06:36:19.773Z,6.75
2022-11-25T06:38:52.552Z,6.73
2022-11-25T06:41:21.360Z,6.58
2022-11-25T06:43:48.238Z,6.55
2022-11-25T06:46:23.046Z,6.53
2022-11-25T06:48:54.106Z,6.49
2022-11-25T06:51:21.378Z,6.42
2022-11-25T06:53:48.420Z,6.39
2022-11-25T06:56:23.512Z,6.40
2022-11-25T06:58:51.613Z,6.39
2022-11-25T07:01:24.743Z,6.43
2022-11-25T07:03:55.477Z,6.48
2022-11-25T07:06:22.778Z,6.45
2022-11-25T07:08:50.365Z,6.41
2022-11-25T07:11:20.786Z,6.27
2022-11-25T07:13:50.898Z,6.25
2022-11-25T07:16:17.650Z,6.24
2022-11-25T07:18:44.983Z,6.24
2022-11-25T07:21:17.951Z,6.26
2022-11-25T07:23:46.776Z,6.27
2022-11-25T07:26:26.070Z,6.28
2022-11-25T07:28:55.242Z,6.33
2022-11-25T07:31:31.328Z,6.33
2022-11-25T07:34:02.229Z,6.33
2022-11-25T07:36:31.105Z,6.33
2022-11-25T07:39:00.760Z,6.26
2022-11-25T07:41:28.641Z,6.39
2022-11-25T07:43:58.607Z,6.42
2022-11-25T07:46:28.861Z,6.39
2022-11-25T07:48:58.244Z,6.36
2022-11-25T07:51:29.277Z,6.43
2022-11-25T07:53:58.303Z,6.49
2022-11-25T07:56:25.421Z,6.44
2022-11-25T07:58:52.191Z,6.62
2022-11-25T08:01:20.005Z,6.74
2022-11-25T08:03:48.559Z,6.75
2022-11-25T08:06:22.364Z,6.73
2022-11-25T08:08:50.296Z,6.78
2022-11-25T08:11:23.750Z,6.91
2022-11-25T08:13:51.054Z,6.84
2022-11-25T08:16:21.028Z,6.87
2022-11-25T08:18:48.766Z,6.98
2022-11-25T08:21:17.341Z,7.00
2022-11-25T08:23:48.585Z,7.12
2022-11-25T08:26:30.103Z,7.14
2022-11-25T08:28:58.212Z,7.32
2022-11-25T08:31:27.607Z,7.36
2022-11-25T08:33:55.165Z,7.48
2022-11-25T08:36:23.397Z,7.43
2022-11-25T08:38:53.786Z,7.52
2022-11-25T08:41:27.406Z,7.52
2022-11-25T08:43:55.227Z,7.63
2022-11-25T08:46:25.477Z,7.71
2022-11-25T08:48:52.678Z,7.70
2022-11-25T08:51:24.070Z,7.71
2022-11-25T08:53:51.643Z,7.67
2022-11-25T08:56:25.525Z,7.79
2022-11-25T08:58:53.569Z,7.85
2022-11-25T09:01:22.722Z,7.88
2022-11-25T09:03:52.603Z,7.91
2022-11-25T09:06:19.453Z,8.00
2022-11-25T09:08:46.786Z,8.05
2022-11-25T09:11:14.798Z,8.11
2022-11-25T09:13:41.674Z,8.10
2022-11-25T09:16:09.430Z,8.18
2022-11-25T09:18:37.215Z,8.25
2022-11-25T09:21:13.124Z,8.36
2022-11-25T09:23:40.459Z,8.49
2022-11-25T09:26:18.271Z,8.48
2022-11-25T09:28:45.102Z,8.44
2022-11-25T09:31:11.795Z,8.54
2022-11-25T09:33:38.779Z,8.43
2022-11-25T09:36:06.233Z,8.51
2022-11-25T09:38:34.124Z,8.46
2022-11-25T09:41:53.068Z,8.53
2022-11-25T09:44:56.591Z,8.63
2022-11-25T09:47:58.207Z,8.64
2022-11-25T09:50:59.385Z,8.62
2022-11-25T09:53:38.818Z,8.66
2022-11-25T09:56:17.556Z,8.78
2022-11-25T09:58:55.302Z,8.76
2022-11-25T10:01:26.272Z,8.83
2022-11-25T10:04:11.362Z,8.80
2022-11-25T10:06:55.385Z,8.86
2022-11-25T10:09:26.621Z,8.90
2022-11-25T10:11:58.394Z,8.90
2022-11-25T10:14:42.659Z,9.02
2022-11-25T10:17:09.442Z,9.00
2022-11-25T10:19:51.779Z,9.10
2022-11-25T10:22:26.445Z,9.12
2022-11-25T10:24:58.560Z,9.19
2022-11-25T10:27:39.859Z,9.15
2022-11-25T10:30:19.227Z,9.26
2022-11-25T10:33:18.463Z,9.18
2022-11-25T10:36:06.744Z,9.29
2022-11-25T10:39:02.965Z,9.27
2022-11-25T10:41:44.138Z,9.40
2022-11-25T10:44:27.759Z,9.37
2022-11-25T10:47:15.513Z,9.38
2022-11-25T10:50:31.601Z,9.42
2022-11-25T10:53:37.492Z,9.39
2022-11-25T10:56:17.004Z,9.57
2022-11-25T10:58:44.612Z,9.52
2022-11-25T11:01:25.805Z,9.53
2022-11-25T11:04:03.475Z,9.56
2022-11-25T11:06:38.324Z,9.51
2022-11-25T11:09:05.205Z,9.53
2022-11-25T11:11:32.490Z,9.70
2022-11-25T11:14:13.645Z,9.74
2022-11-25T11:16:42.942Z,9.78
2022-11-25T11:19:29.901Z,9.81
2022-11-25T11:22:14.251Z,9.79
2022-11-25T11:24:42.476Z,9.72
2022-11-25T11:27:25.357Z,9.81
2022-11-25T11:30:15.076Z,9.76
2022-11-25T11:32:54.617Z,9.83
2022-11-25T11:36:07.189Z,9.86
2022-11-25T11:38:42.164Z,9.87
2022-11-25T11:41:36.458Z,9.98
2022-11-25T11:44:31.116Z,9.87
2022-11-25T11:47:25.123Z,9.97
2022-11-25T11:50:23.235Z,9.95
2022-11-25T11:52:50.038Z,9.99
2022-11-25T11:55:36.440Z,10.02
2022-11-25T11:58:28.823Z,10.00
2022-11-25T12:01:16.709Z,10.05
2022-11-25T12:03:58.355Z,10.10
2022-11-25T12:06:29.486Z,10.10
2022-11-25T12:09:10.444Z,10.01
2022-11-25T12:11:44.751Z,10.10
2022-11-25T12:14:25.880Z,10.15
2022-11-25T12:16:59.280Z,10.08
2022-11-25T12:20:17.471Z,10.16
2022-11-25T12:22:58.608Z,10.21
2022-11-25T12:25:39.000Z,10.19
2022-11-25T12:28:35.774Z,10.12
2022-11-25T12:31:33.223Z,10.26
2022-11-25T12:34:13.826Z,10.36
2022-11-25T12:36:44.795Z,10.36
2022-11-25T12:39:20.131Z,10.52
2022-11-25T12:42:06.335Z,10.57
2022-11-25T12:45:00.214Z,10.89
2022-11-25T12:47:27.440Z,10.95
2022-11-25T12:49:56.266Z,10.90
2022-11-25T12:52:33.003Z,11.16
2022-11-25T12:55:06.017Z,11.16
2022-11-25T12:57:56.035Z,11.09
2022-11-25T13:00:41.518Z,11.11
2022-11-25T13:03:59.276Z,11.18
2022-11-25T13:06:53.631Z,11.33
2022-11-25T13:09:35.278Z,11.25
2022-11-25T13:12:08.343Z,11.16
2022-11-25T13:15:12.149Z,11.32
2022-11-25T13:17:46.236Z,11.12
2022-11-25T13:20:36.995Z,11.01
2022-11-25T13:23:13.230Z,11.18
2022-11-25T13:25:43.310Z,11.12
2022-11-25T13:28:36.423Z,11.24
2022-11-25T13:31:25.480Z,11.29
2022-11-25T13:34:06.406Z,11.36
2022-11-25T13:36:52.576Z,11.46
2022-11-25T13:39:31.794Z,11.32
2022-11-25T13:42:19.401Z,11.33
2022-11-25T13:44:53.267Z,11.36
2022-11-25T13:47:40.569Z,11.25
2022-11-25T13:50:24.513Z,11.22
2022-11-25T13:53:08.199Z,11.18
2022-11-25T13:55:39.914Z,11.11
2022-11-25T13:58:09.663Z,11.13
2022-11-25T14:00:36.405Z,11.11
2022-11-25T14:03:18.345Z,11.08
2022-11-25T14:05:57.393Z,11.10
2022-11-25T14:08:32.835Z,11.09
2022-11-25T14:11:34.567Z,11.13
2022-11-25T14:14:18.429Z,11.18
2022-11-25T14:17:18.862Z,11.28
2022-11-25T14:20:01.294Z,11.23
2022-11-25T14:22:37.508Z,11.11
2022-11-25T14:25:23.232Z,11.05
2022-11-25T14:28:03.934Z,11.04
2022-11-25T14:30:33.763Z,10.89
2022-11-25T14:33:06.304Z,10.73
2022-11-25T14:35:45.415Z,10.73
2022-11-25T14:38:40.405Z,10.73
2022-11-25T14:41:26.569Z,10.60
2022-11-25T14:44:01.349Z,10.51
2022-11-25T14:46:28.180Z,10.48
2022-11-25T14:49:03.302Z,10.46
2022-11-25T14:51:38.380Z,10.45
2022-11-25T14:54:09.712Z,10.46
2022-11-25T14:56:38.803Z,10.36
2022-11-25T14:59:10.294Z,10.28
2022-11-25T15:01:39.637Z,10.24
2022-11-25T15:04:17.637Z,10.25
2022-11-25T15:07:17.213Z,10.28
2022-11-25T15:09:45.316Z,10.22
2022-11-25T15:12:20.249Z,10.03
2022-11-25T15:14:55.686Z,9.85
2022-11-25T15:17:28.780Z,9.71
2022-11-25T15:20:02.671Z,9.63
2022-11-25T15:22:29.569Z,9.70
2022-11-25T15:25:08.346Z,9.63
2022-11-25T15:27:53.330Z,9.62
2022-11-25T15:30:31.764Z,9.58
2022-11-25T15:32:59.786Z,9.54
2022-11-25T15:35:27.795Z,9.52
2022-11-25T15:37:55.289Z,9.50
2022-11-25T15:40:36.471Z,9.56
2022-11-25T15:43:06.837Z,9.72
2022-11-25T15:45:47.081Z,9.73
2022-11-25T15:48:47.110Z,9.67
2022-11-25T15:51:24.636Z,9.58
2022-11-25T15:54:01.665Z,9.60
2022-11-25T15:56:29.054Z,9.58
2022-11-25T15:59:00.251Z,9.44
2022-11-25T16:01:29.803Z,9.39
2022-11-25T16:04:17.533Z,9.19
2022-11-25T16:07:04.959Z,8.99
2022-11-25T16:09:31.941Z,8.95
2022-11-25T16:12:06.628Z,8.87
2022-11-25T16:14:36.809Z,8.83
2022-11-25T16:17:11.906Z,8.81
2022-11-25T16:19:43.958Z,8.80
2022-11-25T16:22:17.254Z,8.74
2022-11-25T16:25:02.166Z,8.64
2022-11-25T16:27:29.799Z,8.57
2022-11-25T16:30:11.661Z,8.56
2022-11-25T16:32:38.545Z,8.57
2022-11-25T16:35:22.042Z,8.61
2022-11-25T16:37:49.862Z,8.49
2022-11-25T16:40:18.757Z,8.50
2022-11-25T16:43:28.061Z,8.49
2022-11-25T16:45:55.326Z,8.55
2022-11-25T16:48:24.078Z,8.54
2022-11-25T16:50:51.756Z,8.44
2022-11-25T16:53:18.955Z,8.33
2022-11-25T16:55:47.196Z,8.50
2022-11-25T16:58:24.163Z,8.44
2022-11-25T17:00:56.231Z,8.45
2022-11-25T17:03:26.159Z,8.40
2022-11-25T17:05:55.041Z,8.26
2022-11-25T17:08:22.279Z,8.31
2022-11-25T17:10:49.938Z,8.26
2022-11-25T17:13:25.627Z,8.43
2022-11-25T17:15:52.694Z,8.38
2022-11-25T17:18:19.833Z,8.55
2022-11-25T17:20:46.641Z,8.73
2022-11-25T17:23:16.868Z,8.76
2022-11-25T17:25:48.914Z,8.79
2022-11-25T17:28:20.872Z,8.79
2022-11-25T17:30:48.109Z,8.87
2022-11-25T17:33:18.217Z,8.87
2022-11-25T17:35:45.927Z,8.87
2022-11-25T17:38:18.285Z,8.86
2022-11-25T17:40:46.017Z,8.80
2022-11-25T17:43:20.886Z,8.69
2022-11-25T17:45:47.829Z,8.57
2022-11-25T17:48:17.325Z,8.59
2022-11-25T17:50:44.172Z,8.55
2022-11-25T17:53:11.027Z,8.65
2022-11-25T17:55:40.589Z,8.67
2022-11-25T17:58:11.838Z,8.56
2022-11-25T18:00:42.869Z,8.29
2022-11-25T18:03:12.754Z,8.23
2022-11-25T18:05:39.548Z,8.11
2022-11-25T18:08:06.448Z,7.97
2022-11-25T18:10:34.153Z,7.97
2022-11-25T18:13:02.878Z,7.92
2022-11-25T18:15:33.870Z,7.92
2022-11-25T18:18:11.874Z,7.80
2022-11-25T18:20:38.711Z,7.85
2022-11-25T18:23:05.684Z,7.79
2022-11-25T18:25:33.959Z,7.77
2022-11-25T18:28:03.494Z,7.77
2022-11-25T18:30:35.949Z,7.67
2022-11-25T18:33:05.516Z,7.61
2022-11-25T18:35:36.687Z,7.51
2022-11-25T18:38:05.197Z,7.53
2022-11-25T18:40:33.901Z,7.53
2022-11-25T18:43:03.336Z,7.48
2022-11-25T18:45:38.877Z,7.41
2022-11-25T18:48:24.151Z,7.46
2022-11-25T18:50:54.895Z,7.40
2022-11-25T18:53:21.796Z,7.42
2022-11-25T18:55:49.536Z,7.34
2022-11-25T18:58:20.245Z,7.53
2022-11-25T19:00:49.768Z,7.41
2022-11-25T19:03:20.340Z,7.46
2022-11-25T19:05:48.086Z,7.34
2022-11-25T19:08:15.215Z,7.33
2022-11-25T19:10:45.470Z,7.51
2022-11-25T19:13:18.968Z,7.46
2022-11-25T19:15:46.647Z,7.31
2022-11-25T19:18:25.026Z,7.26
2022-11-25T19:20:51.668Z,7.21
2022-11-25T19:23:25.150Z,7.24
2022-11-25T19:25:54.053Z,7.16
2022-11-25T19:28:22.086Z,7.20
2022-11-25T19:30:57.812Z,7.09
2022-11-25T19:33:30.672Z,7.13
2022-11-25T19:35:58.444Z,7.06
2022-11-25T19:38:26.087Z,7.08
2022-11-25T19:40:54.855Z,6.88
2022-11-25T19:43:23.083Z,6.92
2022-11-25T19:45:50.747Z,6.80
2022-11-25T19:48:20.556Z,6.80
2022-11-25T19:50:51.940Z,6.77
2022-11-25T19:53:21.346Z,6.75
2022-11-25T19:55:48.769Z,6.87
2022-11-25T19:58:15.822Z,6.82
2022-11-25T20:00:46.258Z,6.77
2022-11-25T20:03:27.007Z,6.76
2022-11-25T20:05:54.507Z,6.80
2022-11-25T20:08:25.946Z,6.74
2022-11-25T20:10:53.435Z,6.62
2022-11-25T20:13:23.292Z,6.62
2022-11-25T20:15:51.114Z,6.61
2022-11-25T20:18:22.536Z,6.62
2022-11-25T20:20:58.472Z,6.56
2022-11-25T20:23:28.261Z,6.55
2022-11-25T20:25:56.177Z,6.54
2022-11-25T20:28:26.102Z,6.44
2022-11-25T20:30:53.927Z,6.37
2022-11-25T20:33:24.669Z,6.41
2022-11-25T20:36:02.689Z,6.39
2022-11-25T20:38:32.608Z,6.31
2022-11-25T20:41:01.131Z,6.33
2022-11-25T20:43:31.102Z,6.26
2022-11-25T20:46:00.732Z,6.22
2022-11-25T20:48:28.905Z,6.07
2022-11-25T20:50:59.997Z,6.07
2022-11-25T20:53:28.027Z,6.03
2022-11-25T20:55:54.904Z,6.00
2022-11-25T20:58:28.066Z,6.00
2022-11-25T21:00:57.800Z,5.98
2022-11-25T21:03:26.026Z,5.99
2022-11-25T21:05:55.720Z,5.95
2022-11-25T21:08:30.104Z,5.91
2022-11-25T21:10:58.795Z,5.93
2022-11-25T21:13:28.558Z,6.02
2022-11-25T21:15:58.902Z,5.89
2022-11-25T21:18:25.668Z,5.89
2022-11-25T21:20:56.289Z,6.02
2022-11-25T21:23:33.921Z,5.84
2022-11-25T21:26:16.559Z,5.70
2022-11-25T21:28:46.171Z,5.82
2022-11-25T21:31:22.993Z,5.78
2022-11-25T21:33:52.978Z,5.85
2022-11-25T21:36:23.526Z,5.72
2022-11-25T21:38:54.330Z,5.80
2022-11-25T21:41:21.203Z,5.81
2022-11-25T21:43:50.398Z,5.74
2022-11-25T21:46:20.001Z,5.73
2022-11-25T21:48:46.805Z,5.80
2022-11-25T21:51:21.493Z,5.86
2022-11-25T21:53:48.916Z,5.99
2022-11-25T21:56:33.912Z,6.16
2022-11-25T21:59:03.774Z,6.26
2022-11-25T22:01:30.601Z,6.17
2022-11-25T22:03:57.370Z,6.09
2022-11-25T22:06:30.508Z,6.02
2022-11-25T22:08:57.708Z,5.95
2022-11-25T22:11:30.590Z,5.96
2022-11-25T22:13:59.214Z,5.77
2022-11-25T22:16:36.671Z,5.74
2022-11-25T22:19:04.204Z,5.76
2022-11-25T22:21:31.289Z,5.78
2022-11-25T22:23:58.157Z,5.83
2022-11-25T22:26:34.025Z,5.84
2022-11-25T22:29:03.158Z,5.97
2022-11-25T22:31:30.071Z,5.95
2022-11-25T22:33:56.996Z,5.86
2022-11-25T22:36:36.403Z,5.84
2022-11-25T22:39:16.730Z,5.91
2022-11-25T22:41:53.096Z,5.91
2022-11-25T22:44:37.407Z,6.05
2022-11-25T22:47:06.186Z,5.99
2022-11-25T22:49:48.867Z,5.92
2022-11-25T22:52:26.166Z,5.87
2022-11-25T22:54:53.868Z,5.89
2022-11-25T22:57:21.017Z,5.77
2022-11-25T22:59:47.874Z,5.65
2022-11-25T23:02:32.037Z,5.75
2022-11-25T23:04:58.788Z,5.71
2022-11-25T23:07:26.419Z,5.64
2022-11-25T23:09:54.132Z,5.64
